createdAt,value
2022-11-29T00:00:38.556Z,1001.4
2022-11-29T00:01:54.835Z,1001.4
2022-11-29T00:03:11.134Z,1001.4
2022-11-29T00:04:27.426Z,1001.4
2022-11-29T00:05:43.728Z,1001.4
2022-11-29T00:07:00.048Z,1001.5
2022-11-29T00:08:16.320Z,1001.5
2022-11-29T00:09:31.618Z,1001.4
2022-11-29T00:10:47.924Z,1001.5
2022-11-29T00:12:04.224Z,1001.5
2022-11-29T00:13:20.532Z,1001.4
2022-11-29T00:14:36.832Z,1001.5
2022-11-29T00:15:53.097Z,1001.5
2022-11-29T00:17:09.422Z,1001.4
2022-11-29T00:18:25.695Z,1001.4
2022-11-29T00:19:42.004Z,1001.4
2022-11-29T00:20:58.271Z,1001.4
2022-11-29T00:22:14.560Z,1001.4
2022-11-29T00:23:30.875Z,1001.4
2022-11-29T00:24:47.150Z,1001.4
2022-11-29T00:26:02.462Z,1001.4
2022-11-29T00:27:18.757Z,1001.4
2022-11-29T00:28:35.064Z,1001.3
2022-11-29T00:29:51.382Z,1001.3
2022-11-29T00:31:07.646Z,1001.4
2022-11-29T00:32:23.949Z,1001.4
2022-11-29T00:33:40.236Z,1001.4
2022-11-29T00:34:56.528Z,1001.4
2022-11-29T00:36:12.820Z,1001.4
2022-11-29T00:37:29.142Z,1001.3
2022-11-29T00:38:45.437Z,1001.4
2022-11-29T00:40:01.700Z,1001.3
2022-11-29T00:41:18.002Z,1001.3
2022-11-29T00:42:33.317Z,1001.3
2022-11-29T00:43:49.609Z,1001.4
2022-11-29T00:45:05.908Z,1001.4
2022-11-29T00:46:22.193Z,1001.4
2022-11-29T00:47:38.487Z,1001.4
2022-11-29T00:48:54.797Z,1001.4
2022-11-29T00:50:11.078Z,1001.4
2022-11-29T00:51:27.384Z,1001.4
2022-11-29T00:52:43.661Z,1001.4
2022-11-29T00:53:59.987Z,1001.4
2022-11-29T00:55:16.288Z,1001.4
2022-11-29T00:56:32.545Z,1001.4
2022-11-29T00:57:48.873Z,1001.4
2022-11-29T00:59:04.150Z,1001.4
2022-11-29T01:00:20.481Z,1001.3
2022-11-29T01:01:36.754Z,1001.3
2022-11-29T01:02:53.041Z,1001.3
2022-11-29T01:04:09.000Z,1001.3
2022-11-29T01:05:25.654Z,1001.3
2022-11-29T01:06:41.931Z,1001.3
2022-11-29T01:07:58.254Z,1001.3
2022-11-29T01:09:14.522Z,1001.4
2022-11-29T01:10:30.835Z,1001.4
2022-11-29T01:11:47.112Z,1001.3
2022-11-29T01:13:03.419Z,1001.3
2022-11-29T01:14:19.688Z,1001.3
2022-11-29T01:15:35.003Z,1001.4
2022-11-29T01:16:51.321Z,1001.4
2022-11-29T01:18:07.583Z,1001.4
2022-11-29T01:19:23.890Z,1001.3
2022-11-29T01:20:40.207Z,1001.3
2022-11-29T01:21:56.488Z,1001.4
2022-11-29T01:23:12.808Z,1001.5
2022-11-29T01:24:29.059Z,1001.4
2022-11-29T01:25:45.381Z,1001.4
2022-11-29T01:27:01.648Z,1001.4
2022-11-29T01:28:17.978Z,1001.4
2022-11-29T01:29:34.245Z,1001.4
2022-11-29T01:30:50.574Z,1001.4
2022-11-29T01:32:05.853Z,1001.4
2022-11-29T01:33:22.174Z,1001.4
2022-11-29T01:34:38.447Z,1001.4
2022-11-29T01:35:54.755Z,1001.4
2022-11-29T01:37:11.037Z,1001.4
2022-11-29T01:38:27.346Z,1001.4
2022-11-29T01:39:43.610Z,1001.4
2022-11-29T01:40:59.901Z,1001.5
2022-11-29T01:42:16.200Z,1001.4
2022-11-29T01:43:32.493Z,1001.4
2022-11-29T01:44:48.819Z,1001.4
2022-11-29T01:46:05.122Z,1001.5
2022-11-29T01:47:21.382Z,1001.5
2022-11-29T01:48:36.694Z,1001.5
2022-11-29T01:49:53.000Z,1001.5
2022-11-29T01:51:09.315Z,1001.5
2022-11-29T01:52:25.573Z,1001.5
2022-11-29T01:53:41.894Z,1001.5
2022-11-29T01:54:58.173Z,1001.5
2022-11-29T01:56:14.469Z,1001.6
2022-11-29T01:57:30.747Z,1001.5
2022-11-29T01:58:47.058Z,1001.5
2022-11-29T02:00:03.348Z,1001.5
2022-11-29T02:01:19.631Z,1001.5
2022-11-29T02:02:35.974Z,1001.4
2022-11-29T02:03:52.259Z,1001.5
2022-11-29T02:05:07.536Z,1001.4
2022-11-29T02:06:23.863Z,1001.5
2022-11-29T02:07:40.136Z,1001.5
2022-11-29T02:08:56.457Z,1001.5
2022-11-29T02:10:12.714Z,1001.5
2022-11-29T02:11:29.008Z,1001.5
2022-11-29T02:12:45.309Z,1001.5
2022-11-29T02:14:01.626Z,1001.5
2022-11-29T02:15:17.899Z,1001.5
2022-11-29T02:16:34.219Z,1001.5
2022-11-29T02:17:50.492Z,1001.5
2022-11-29T02:19:06.771Z,1001.5
2022-11-29T02:20:23.073Z,1001.5
2022-11-29T02:21:38.406Z,1001.5
2022-11-29T02:22:54.672Z,1001.5
2022-11-29T02:24:10.996Z,1001.5
2022-11-29T02:25:27.279Z,1001.5
2022-11-29T02:26:43.556Z,1001.5
2022-11-29T02:27:59.857Z,1001.6
2022-11-29T02:29:16.157Z,1001.5
2022-11-29T02:30:32.442Z,1001.5
2022-11-29T02:31:48.748Z,1001.5
2022-11-29T02:33:05.043Z,1001.5
2022-11-29T02:34:21.364Z,1001.6
2022-11-29T02:35:37.630Z,1001.5
2022-11-29T02:36:53.916Z,1001.5
2022-11-29T02:38:09.238Z,1001.5
2022-11-29T02:39:25.525Z,1001.5
2022-11-29T02:40:41.817Z,1001.6
2022-11-29T02:41:58.117Z,1001.5
2022-11-29T02:43:14.408Z,1001.6
2022-11-29T02:44:30.711Z,1001.5
2022-11-29T02:45:47.007Z,1001.5
2022-11-29T02:47:03.320Z,1001.6
2022-11-29T02:48:19.588Z,1001.5
2022-11-29T02:49:35.873Z,1001.5
2022-11-29T02:52:08.499Z,1001.5
2022-11-29T02:53:24.763Z,1001.6
2022-11-29T02:54:40.099Z,1001.6
2022-11-29T02:55:56.395Z,1001.6
2022-11-29T02:57:12.661Z,1001.5
2022-11-29T02:58:28.960Z,1001.5
2022-11-29T02:59:45.286Z,1001.5
2022-11-29T03:01:01.556Z,1001.5
2022-11-29T03:02:17.879Z,1001.6
2022-11-29T03:03:34.133Z,1001.6
2022-11-29T03:04:50.000Z,1001.6
2022-11-29T03:06:06.725Z,1001.7
2022-11-29T03:07:23.021Z,1001.6
2022-11-29T03:08:39.326Z,1001.6
2022-11-29T03:09:55.637Z,1001.6
2022-11-29T03:11:10.953Z,1001.6
2022-11-29T03:12:27.218Z,1001.7
2022-11-29T03:13:43.518Z,1001.6
2022-11-29T03:14:59.804Z,1001.7
2022-11-29T03:16:16.100Z,1001.6
2022-11-29T03:17:32.427Z,1001.6
2022-11-29T03:18:48.690Z,1001.7
2022-11-29T03:20:05.008Z,1001.7
2022-11-29T03:21:21.289Z,1001.7
2022-11-29T03:22:37.566Z,1001.7
2022-11-29T03:23:53.866Z,1001.7
2022-11-29T03:25:10.188Z,1001.7
2022-11-29T03:26:26.467Z,1001.7
2022-11-29T03:27:41.802Z,1001.8
2022-11-29T03:28:58.063Z,1001.7
2022-11-29T03:30:14.358Z,1001.7
2022-11-29T03:31:30.647Z,1001.7
2022-11-29T03:32:46.940Z,1001.8
2022-11-29T03:34:03.240Z,1001.8
2022-11-29T03:35:19.526Z,1001.8
2022-11-29T03:36:35.835Z,1001.8
2022-11-29T03:37:52.132Z,1001.8
2022-11-29T03:39:08.411Z,1001.8
2022-11-29T03:40:24.704Z,1001.8
2022-11-29T03:41:41.036Z,1001.8
2022-11-29T03:42:57.296Z,1001.8
2022-11-29T03:44:12.617Z,1001.8
2022-11-29T03:45:28.929Z,1001.8
2022-11-29T03:46:45.203Z,1001.8
2022-11-29T03:48:01.533Z,1001.9
2022-11-29T03:49:17.793Z,1001.8
2022-11-29T03:50:34.079Z,1001.7
2022-11-29T03:51:50.388Z,1001.7
2022-11-29T03:53:06.680Z,1001.8
2022-11-29T03:54:22.979Z,1001.8
2022-11-29T03:55:39.260Z,1001.7
2022-11-29T03:56:55.566Z,1001.7
2022-11-29T03:58:11.856Z,1001.7
2022-11-29T03:59:28.158Z,1001.8
2022-11-29T04:00:43.492Z,1001.8
2022-11-29T04:01:59.759Z,1001.8
2022-11-29T04:03:16.069Z,1001.8
2022-11-29T04:04:32.345Z,1001.8
2022-11-29T04:05:48.638Z,1001.8
2022-11-29T04:07:03.945Z,1001.8
2022-11-29T04:08:20.239Z,1001.8
2022-11-29T04:09:36.549Z,1001.8
2022-11-29T04:10:52.862Z,1001.8
2022-11-29T04:12:09.128Z,1001.8
2022-11-29T04:13:25.416Z,1001.8
2022-11-29T04:14:41.728Z,1001.8
2022-11-29T04:15:58.041Z,1001.8
2022-11-29T04:17:14.301Z,1001.8
2022-11-29T04:18:30.597Z,1001.8
2022-11-29T04:19:46.924Z,1001.8
2022-11-29T04:21:03.232Z,1001.8
2022-11-29T04:22:19.514Z,1001.8
2022-11-29T04:23:34.817Z,1001.9
2022-11-29T04:24:51.127Z,1001.8
2022-11-29T04:26:07.419Z,1001.9
2022-11-29T04:27:23.716Z,1001.9
2022-11-29T04:28:40.012Z,1001.8
2022-11-29T04:29:56.307Z,1001.8
2022-11-29T04:31:12.594Z,1001.9
2022-11-29T04:32:28.877Z,1001.8
2022-11-29T04:33:45.176Z,1001.9
2022-11-29T04:35:01.471Z,1001.9
2022-11-29T04:36:17.770Z,1001.9
2022-11-29T04:37:34.070Z,1001.9
2022-11-29T04:38:50.359Z,1001.9
2022-11-29T04:40:05.678Z,1002
2022-11-29T04:41:21.976Z,1001.9
2022-11-29T04:42:38.252Z,1001.9
2022-11-29T04:43:54.544Z,1001.9
2022-11-29T04:45:10.851Z,1002
2022-11-29T04:46:27.145Z,1002
2022-11-29T04:47:43.445Z,1002
2022-11-29T04:48:59.727Z,1002
2022-11-29T04:50:16.021Z,1002
2022-11-29T04:51:32.320Z,1002
2022-11-29T04:52:48.620Z,1002.1
2022-11-29T04:54:04.915Z,1002
2022-11-29T04:55:21.194Z,1002.1
2022-11-29T04:56:37.629Z,1002
2022-11-29T04:57:53.918Z,1002.1
2022-11-29T04:59:10.222Z,1002.1
2022-11-29T05:00:26.496Z,1002.1
2022-11-29T05:01:42.813Z,1002
2022-11-29T05:02:59.084Z,1002
2022-11-29T05:04:15.384Z,1002.1
2022-11-29T05:05:31.690Z,1002
2022-11-29T05:06:47.985Z,1002.1
2022-11-29T05:08:04.271Z,1002.1
2022-11-29T05:09:20.565Z,1002.1
2022-11-29T05:10:36.858Z,1002.1
2022-11-29T05:11:53.155Z,1002.2
2022-11-29T05:13:08.462Z,1002.2
2022-11-29T05:14:24.762Z,1002.2
2022-11-29T05:15:41.050Z,1002.3
2022-11-29T05:16:57.352Z,1002.2
2022-11-29T05:18:13.647Z,1002.2
2022-11-29T05:19:29.944Z,1002.2
2022-11-29T05:20:46.240Z,1002.2
2022-11-29T05:22:02.517Z,1002.2
2022-11-29T05:23:18.816Z,1002.3
2022-11-29T05:24:35.110Z,1002.3
2022-11-29T05:25:51.420Z,1002.3
2022-11-29T05:27:07.700Z,1002.3
2022-11-29T05:28:24.002Z,1002.3
2022-11-29T05:29:39.302Z,1002.3
2022-11-29T05:30:55.616Z,1002.3
2022-11-29T05:32:11.901Z,1002.3
2022-11-29T05:33:28.192Z,1002.3
2022-11-29T05:34:44.490Z,1002.3
2022-11-29T05:36:00.790Z,1002.4
2022-11-29T05:37:17.072Z,1002.4
2022-11-29T05:38:33.388Z,1002.4
2022-11-29T05:39:49.677Z,1002.4
2022-11-29T05:41:05.954Z,1002.4
2022-11-29T05:42:22.268Z,1002.4
2022-11-29T05:43:38.546Z,1002.4
2022-11-29T05:44:54.844Z,1002.4
2022-11-29T05:46:10.158Z,1002.4
2022-11-29T05:47:26.458Z,1002.5
2022-11-29T05:48:42.737Z,1002.4
2022-11-29T05:49:59.038Z,1002.4
2022-11-29T05:51:15.348Z,1002.4
2022-11-29T05:52:31.638Z,1002.4
2022-11-29T05:53:47.936Z,1002.5
2022-11-29T05:55:04.221Z,1002.4
2022-11-29T05:56:20.510Z,1002.4
2022-11-29T05:57:36.798Z,1002.4
2022-11-29T05:58:53.105Z,1002.5
2022-11-29T06:00:09.399Z,1002.5
2022-11-29T06:01:25.684Z,1002.5
2022-11-29T06:02:40.997Z,1002.5
2022-11-29T06:03:57.286Z,1002.5
2022-11-29T06:05:13.594Z,1002.6
2022-11-29T06:06:29.888Z,1002.6
2022-11-29T06:07:46.177Z,1002.6
2022-11-29T06:09:02.473Z,1002.6
2022-11-29T06:10:18.773Z,1002.6
2022-11-29T06:11:35.066Z,1002.6
2022-11-29T06:12:51.356Z,1002.6
2022-11-29T06:14:07.650Z,1002.6
2022-11-29T06:15:23.945Z,1002.6
2022-11-29T06:16:40.234Z,1002.6
2022-11-29T06:17:56.474Z,1002.6
2022-11-29T06:19:11.789Z,1002.6
2022-11-29T06:20:28.050Z,1002.6
2022-11-29T06:21:44.283Z,1002.7
2022-11-29T06:23:00.530Z,1002.7
2022-11-29T06:24:16.761Z,1002.6
2022-11-29T06:25:33.025Z,1002.7
2022-11-29T06:26:49.249Z,1002.7
2022-11-29T06:28:05.493Z,1002.7
2022-11-29T06:29:21.738Z,1002.7
2022-11-29T06:30:37.980Z,1002.7
2022-11-29T06:31:54.220Z,1002.7
2022-11-29T06:33:10.460Z,1002.7
2022-11-29T06:34:26.705Z,1002.8
2022-11-29T06:35:41.956Z,1002.8
2022-11-29T06:36:58.206Z,1002.8
2022-11-29T06:38:14.440Z,1002.8
2022-11-29T06:39:30.673Z,1002.8
2022-11-29T06:40:46.926Z,1002.8
2022-11-29T06:42:03.161Z,1002.8
2022-11-29T06:43:19.404Z,1002.8
2022-11-29T06:44:35.638Z,1002.8
2022-11-29T06:45:51.889Z,1002.8
2022-11-29T06:47:08.120Z,1002.9
2022-11-29T06:48:24.368Z,1002.8
2022-11-29T06:49:40.599Z,1003
2022-11-29T06:50:56.850Z,1002.9
2022-11-29T06:52:12.110Z,1002.9
2022-11-29T06:53:28.340Z,1002.9
2022-11-29T06:54:44.592Z,1002.9
2022-11-29T06:56:00.818Z,1002.9
2022-11-29T06:57:17.076Z,1002.9
2022-11-29T06:58:33.311Z,1002.9
2022-11-29T06:59:49.552Z,1002.9
2022-11-29T07:01:05.790Z,1003
2022-11-29T07:02:22.022Z,1003
2022-11-29T07:03:38.268Z,1003
2022-11-29T07:04:54.504Z,1003.1
2022-11-29T07:06:10.750Z,1003
2022-11-29T07:07:26.998Z,1003
2022-11-29T07:08:42.246Z,1003
2022-11-29T07:09:58.497Z,1003
2022-11-29T07:11:14.738Z,1003.1
2022-11-29T07:12:30.969Z,1003.1
2022-11-29T07:13:47.224Z,1003.1
2022-11-29T07:15:03.448Z,1003.1
2022-11-29T07:16:19.699Z,1003.1
2022-11-29T07:17:35.930Z,1003.1
2022-11-29T07:18:52.183Z,1003.1
2022-11-29T07:20:08.406Z,1003.1
2022-11-29T07:21:24.643Z,1003.1
2022-11-29T07:22:40.894Z,1003.1
2022-11-29T07:23:57.136Z,1003.1
2022-11-29T07:25:12.398Z,1003.1
2022-11-29T07:26:28.632Z,1003.1
2022-11-29T07:27:44.868Z,1003.1
2022-11-29T07:29:01.106Z,1003.1
2022-11-29T07:30:17.356Z,1003.2
2022-11-29T07:31:33.602Z,1003.2
2022-11-29T07:32:49.833Z,1003.1
2022-11-29T07:34:06.081Z,1003.2
2022-11-29T07:35:22.307Z,1003.2
2022-11-29T07:36:38.555Z,1003.2
2022-11-29T07:37:54.794Z,1003.2
2022-11-29T07:39:11.034Z,1003.2
2022-11-29T07:40:27.292Z,1003.3
2022-11-29T07:41:42.538Z,1003.4
2022-11-29T07:42:58.773Z,1003.3
2022-11-29T07:44:15.010Z,1003.3
2022-11-29T07:45:31.257Z,1003.3
2022-11-29T07:46:47.497Z,1003.3
2022-11-29T07:48:03.736Z,1003.3
2022-11-29T07:49:19.976Z,1003.3
2022-11-29T07:50:36.226Z,1003.4
2022-11-29T07:51:52.466Z,1003.3
2022-11-29T07:53:08.700Z,1003.3
2022-11-29T07:54:24.945Z,1003.4
2022-11-29T07:55:41.175Z,1003.3
2022-11-29T07:56:57.415Z,1003.3
2022-11-29T07:58:12.678Z,1003.4
2022-11-29T07:59:28.927Z,1003.4
2022-11-29T08:00:45.171Z,1003.5
2022-11-29T08:02:01.393Z,1003.4
2022-11-29T08:03:17.633Z,1003.4
2022-11-29T08:04:33.880Z,1003.4
2022-11-29T08:05:50.124Z,1003.4
2022-11-29T08:07:06.364Z,1003.4
2022-11-29T08:08:22.602Z,1003.4
2022-11-29T08:09:38.847Z,1003.4
2022-11-29T08:10:55.085Z,1003.3
2022-11-29T08:12:11.322Z,1003.4
2022-11-29T08:13:27.556Z,1003.3
2022-11-29T08:14:42.826Z,1003.4
2022-11-29T08:17:15.301Z,1003.4
2022-11-29T08:19:47.794Z,1003.4
2022-11-29T08:21:04.033Z,1003.4
2022-11-29T08:22:19.301Z,1003.5
2022-11-29T08:23:35.538Z,1003.4
2022-11-29T08:24:51.774Z,1003.4
2022-11-29T08:26:08.023Z,1003.4
2022-11-29T08:27:24.253Z,1003.4
2022-11-29T08:28:40.491Z,1003.4
2022-11-29T08:29:56.732Z,1003.4
2022-11-29T08:31:12.978Z,1003.5
2022-11-29T08:32:29.000Z,1003.4
2022-11-29T08:33:45.449Z,1003.4
2022-11-29T08:35:01.691Z,1003.4
2022-11-29T08:36:17.933Z,1003.4
2022-11-29T08:37:34.164Z,1003.5
2022-11-29T08:38:49.431Z,1003.5
2022-11-29T08:40:05.662Z,1003.4
2022-11-29T08:41:21.922Z,1003.5
2022-11-29T08:42:38.169Z,1003.5
2022-11-29T08:43:54.389Z,1003.5
2022-11-29T08:45:10.636Z,1003.5
2022-11-29T08:46:26.882Z,1003.5
2022-11-29T08:47:43.121Z,1003.5
2022-11-29T08:48:59.359Z,1003.5
2022-11-29T08:50:15.613Z,1003.5
2022-11-29T08:51:31.843Z,1003.5
2022-11-29T08:52:48.072Z,1003.5
2022-11-29T08:54:04.323Z,1003.5
2022-11-29T08:55:19.576Z,1003.5
2022-11-29T08:56:35.806Z,1003.6
2022-11-29T08:57:52.057Z,1003.6
2022-11-29T08:59:08.300Z,1003.6
2022-11-29T09:00:24.533Z,1003.6
2022-11-29T09:01:40.767Z,1003.6
2022-11-29T09:02:57.015Z,1003.6
2022-11-29T09:04:13.249Z,1003.6
2022-11-29T09:05:29.493Z,1003.6
2022-11-29T09:06:45.728Z,1003.6
2022-11-29T09:08:01.982Z,1003.6
2022-11-29T09:09:18.219Z,1003.6
2022-11-29T09:10:34.466Z,1003.7
2022-11-29T09:11:49.715Z,1003.7
2022-11-29T09:13:05.949Z,1003.7
2022-11-29T09:14:22.203Z,1003.7
2022-11-29T09:15:38.442Z,1003.7
2022-11-29T09:16:54.684Z,1003.7
2022-11-29T09:18:10.913Z,1003.7
2022-11-29T09:19:27.167Z,1003.8
2022-11-29T09:20:43.404Z,1003.7
2022-11-29T09:21:59.633Z,1003.7
2022-11-29T09:23:15.887Z,1003.7
2022-11-29T09:24:32.128Z,1003.7
2022-11-29T09:25:48.359Z,1003.7
2022-11-29T09:27:04.594Z,1003.7
2022-11-29T09:28:19.866Z,1003.7
2022-11-29T09:29:36.117Z,1003.7
2022-11-29T09:30:52.348Z,1003.8
2022-11-29T09:32:08.584Z,1003.8
2022-11-29T09:33:24.820Z,1003.7
2022-11-29T09:34:41.062Z,1003.8
2022-11-29T09:35:57.306Z,1003.8
2022-11-29T09:37:13.545Z,1003.8
2022-11-29T09:38:29.789Z,1003.8
2022-11-29T09:39:46.029Z,1003.8
2022-11-29T09:41:02.272Z,1003.8
2022-11-29T09:42:18.506Z,1003.9
2022-11-29T09:43:34.744Z,1003.8
2022-11-29T09:44:50.002Z,1003.8
2022-11-29T09:46:06.245Z,1003.8
2022-11-29T09:47:22.486Z,1003.9
2022-11-29T09:48:38.717Z,1003.8
2022-11-29T09:49:54.960Z,1003.8
2022-11-29T09:51:11.207Z,1003.9
2022-11-29T09:52:27.446Z,1003.8
2022-11-29T09:53:43.690Z,1003.9
2022-11-29T09:54:59.918Z,1003.9
2022-11-29T09:56:16.166Z,1003.9
2022-11-29T09:57:32.413Z,1003.9
2022-11-29T09:58:48.639Z,1003.9
2022-11-29T10:00:04.891Z,1003.9
2022-11-29T10:01:20.144Z,1003.9
2022-11-29T10:02:36.400Z,1003.9
2022-11-29T10:03:52.631Z,1003.8
2022-11-29T10:05:08.861Z,1003.9
2022-11-29T10:06:25.118Z,1003.9
2022-11-29T10:07:41.359Z,1003.8
2022-11-29T10:08:57.592Z,1003.9
2022-11-29T10:10:13.830Z,1004
2022-11-29T10:11:30.076Z,1003.9
2022-11-29T10:12:46.325Z,1003.9
2022-11-29T10:14:02.544Z,1003.9
2022-11-29T10:15:18.789Z,1003.9
2022-11-29T10:16:35.026Z,1004
2022-11-29T10:17:51.392Z,1003.9
2022-11-29T10:19:07.643Z,1003.9
2022-11-29T10:20:23.876Z,1003.9
2022-11-29T10:21:40.116Z,1003.9
2022-11-29T10:22:56.349Z,1004
2022-11-29T10:24:12.594Z,1003.9
2022-11-29T10:25:28.830Z,1004
2022-11-29T10:26:45.083Z,1004
2022-11-29T10:28:01.307Z,1003.9
2022-11-29T10:29:17.566Z,1003.9
2022-11-29T10:30:33.797Z,1004
2022-11-29T10:31:50.033Z,1003.9
2022-11-29T10:33:06.284Z,1004
2022-11-29T10:34:21.539Z,1004
2022-11-29T10:35:37.766Z,1003.9
2022-11-29T10:36:54.017Z,1003.9
2022-11-29T10:38:10.266Z,1003.9
2022-11-29T10:39:26.498Z,1004
2022-11-29T10:40:42.735Z,1004
2022-11-29T10:41:58.968Z,1003.9
2022-11-29T10:43:15.221Z,1004
2022-11-29T10:44:31.464Z,1003.9
2022-11-29T10:45:47.698Z,1003.9
2022-11-29T10:47:03.947Z,1004
2022-11-29T10:48:20.183Z,1003.9
2022-11-29T10:49:36.422Z,1003.9
2022-11-29T10:50:51.677Z,1004
2022-11-29T10:52:07.924Z,1003.9
2022-11-29T10:53:24.158Z,1003.9
2022-11-29T10:54:40.396Z,1003.9
2022-11-29T10:55:56.634Z,1003.9
2022-11-29T10:57:12.883Z,1003.9
2022-11-29T10:58:29.125Z,1003.9
2022-11-29T10:59:45.373Z,1003.9
2022-11-29T11:01:01.603Z,1004
2022-11-29T11:02:17.845Z,1003.9
2022-11-29T11:03:34.082Z,1004
2022-11-29T11:04:50.323Z,1003.9
2022-11-29T11:07:22.804Z,1004
2022-11-29T11:08:38.059Z,1004
2022-11-29T11:09:54.300Z,1004
2022-11-29T11:11:10.543Z,1004
2022-11-29T11:12:26.779Z,1004
2022-11-29T11:13:43.014Z,1003.9
2022-11-29T11:14:59.273Z,1003.9
2022-11-29T11:16:15.516Z,1003.9
2022-11-29T11:17:31.760Z,1004
2022-11-29T11:18:47.988Z,1003.9
2022-11-29T11:20:04.225Z,1004
2022-11-29T11:21:20.457Z,1004
2022-11-29T11:22:36.697Z,1004
2022-11-29T11:23:52.952Z,1004
2022-11-29T11:25:08.200Z,1004
2022-11-29T11:26:24.444Z,1004
2022-11-29T11:27:40.699Z,1004
2022-11-29T11:28:56.924Z,1004
2022-11-29T11:30:13.163Z,1004
2022-11-29T11:31:29.396Z,1004
2022-11-29T11:32:45.642Z,1004.1
2022-11-29T11:34:01.897Z,1004.1
2022-11-29T11:35:18.126Z,1004
2022-11-29T11:36:34.367Z,1004.1
2022-11-29T11:37:50.613Z,1004
2022-11-29T11:39:06.858Z,1004.1
2022-11-29T11:40:23.081Z,1004.1
2022-11-29T11:41:38.351Z,1004.1
2022-11-29T11:42:54.582Z,1004.1
2022-11-29T11:44:10.831Z,1004.2
2022-11-29T11:45:27.079Z,1004.1
2022-11-29T11:46:43.311Z,1004.1
2022-11-29T11:47:59.544Z,1004.2
2022-11-29T11:49:15.785Z,1004.2
2022-11-29T11:50:32.024Z,1004.2
2022-11-29T11:51:48.268Z,1004.2
2022-11-29T11:53:04.514Z,1004.2
2022-11-29T11:54:20.749Z,1004.2
2022-11-29T11:55:36.982Z,1004.2
2022-11-29T11:56:53.225Z,1004.2
2022-11-29T11:58:08.481Z,1004.1
2022-11-29T11:59:24.727Z,1004.1
2022-11-29T12:00:40.960Z,1004.1
2022-11-29T12:01:57.202Z,1004.2
2022-11-29T12:03:13.459Z,1004.1
2022-11-29T12:04:29.690Z,1004.2
2022-11-29T12:05:45.931Z,1004.2
2022-11-29T12:07:02.164Z,1004.1
2022-11-29T12:08:18.415Z,1004.1
2022-11-29T12:09:34.668Z,1004.1
2022-11-29T12:10:50.898Z,1004.1
2022-11-29T12:12:07.140Z,1004.2
2022-11-29T12:13:23.375Z,1004.2
2022-11-29T12:14:38.635Z,1004.2
2022-11-29T12:15:54.860Z,1004.2
2022-11-29T12:17:11.111Z,1004.3
2022-11-29T12:18:27.342Z,1004.2
2022-11-29T12:19:43.597Z,1004.2
2022-11-29T12:20:59.832Z,1004.3
2022-11-29T12:22:16.078Z,1004.3
2022-11-29T12:23:32.329Z,1004.3
2022-11-29T12:24:48.553Z,1004.3
2022-11-29T12:26:04.795Z,1004.2
2022-11-29T12:27:21.050Z,1004.2
2022-11-29T12:28:37.280Z,1004.3
2022-11-29T12:29:53.524Z,1004.3
2022-11-29T12:31:08.781Z,1004.3
2022-11-29T12:32:25.023Z,1004.2
2022-11-29T12:33:41.248Z,1004.2
2022-11-29T12:34:57.504Z,1004.3
2022-11-29T12:36:13.726Z,1004.4
2022-11-29T12:37:28.995Z,1004.3
2022-11-29T12:38:45.228Z,1004.4
2022-11-29T12:40:01.486Z,1004.3
2022-11-29T12:41:17.721Z,1004.3
2022-11-29T12:42:33.958Z,1004.3
2022-11-29T12:43:50.198Z,1004.3
2022-11-29T12:45:06.432Z,1004.3
2022-11-29T12:46:22.676Z,1004.4
2022-11-29T12:47:38.918Z,1004.4
2022-11-29T12:48:55.158Z,1004.4
2022-11-29T12:50:11.413Z,1004.4
2022-11-29T12:51:27.652Z,1004.4
2022-11-29T12:52:43.885Z,1004.4
2022-11-29T12:53:59.138Z,1004.4
2022-11-29T12:55:15.377Z,1004.4
2022-11-29T12:56:31.620Z,1004.4
2022-11-29T12:57:47.863Z,1004.4
2022-11-29T12:59:04.094Z,1004.4
2022-11-29T13:00:20.338Z,1004.4
2022-11-29T13:01:36.584Z,1004.4
2022-11-29T13:02:52.818Z,1004.5
2022-11-29T13:04:09.077Z,1004.4
2022-11-29T13:05:25.312Z,1004.5
2022-11-29T13:06:41.547Z,1004.5
2022-11-29T13:07:57.784Z,1004.5
2022-11-29T13:09:14.044Z,1004.5
2022-11-29T13:10:29.287Z,1004.5
2022-11-29T13:11:45.527Z,1004.5
2022-11-29T13:13:01.768Z,1004.5
2022-11-29T13:14:18.005Z,1004.6
2022-11-29T13:15:34.244Z,1004.5
2022-11-29T13:16:50.492Z,1004.5
2022-11-29T13:18:06.730Z,1004.5
2022-11-29T13:19:22.955Z,1004.6
2022-11-29T13:20:39.205Z,1004.5
2022-11-29T13:21:55.437Z,1004.6
2022-11-29T13:23:11.687Z,1004.6
2022-11-29T13:24:27.922Z,1004.6
2022-11-29T13:25:44.161Z,1004.6
2022-11-29T13:26:59.423Z,1004.6
2022-11-29T13:28:15.669Z,1004.6
2022-11-29T13:29:31.917Z,1004.6
2022-11-29T13:30:48.151Z,1004.6
2022-11-29T13:32:04.387Z,1004.6
2022-11-29T13:33:20.637Z,1004.7
2022-11-29T13:34:36.874Z,1004.6
2022-11-29T13:35:53.119Z,1004.6
2022-11-29T13:37:09.353Z,1004.6
2022-11-29T13:38:25.597Z,1004.6
2022-11-29T13:39:41.835Z,1004.6
2022-11-29T13:40:58.085Z,1004.6
2022-11-29T13:42:14.307Z,1004.7
2022-11-29T13:43:29.555Z,1004.7
2022-11-29T13:44:45.795Z,1004.7
2022-11-29T13:46:02.047Z,1004.7
2022-11-29T13:47:18.280Z,1004.7
2022-11-29T13:48:34.542Z,1004.7
2022-11-29T13:49:50.779Z,1004.7
2022-11-29T13:51:07.000Z,1004.7
2022-11-29T13:52:23.257Z,1004.7
2022-11-29T13:53:39.503Z,1004.7
2022-11-29T13:54:55.721Z,1004.8
2022-11-29T13:56:11.978Z,1004.9
2022-11-29T13:57:28.223Z,1004.8
2022-11-29T13:58:44.459Z,1004.8
2022-11-29T13:59:59.703Z,1004.8
2022-11-29T14:01:15.942Z,1004.9
2022-11-29T14:02:32.201Z,1004.8
2022-11-29T14:03:48.422Z,1004.8
2022-11-29T14:05:04.661Z,1004.9
2022-11-29T14:06:20.897Z,1004.8
2022-11-29T14:07:37.155Z,1004.8
2022-11-29T14:08:53.385Z,1004.8
2022-11-29T14:10:09.631Z,1004.8
2022-11-29T14:11:25.878Z,1004.8
2022-11-29T14:12:42.113Z,1004.8
2022-11-29T14:13:58.366Z,1004.8
2022-11-29T14:15:14.595Z,1004.8
2022-11-29T14:16:29.853Z,1004.8
2022-11-29T14:17:46.095Z,1004.9
2022-11-29T14:19:02.338Z,1004.8
2022-11-29T14:20:18.580Z,1004.9
2022-11-29T14:21:34.830Z,1004.9
2022-11-29T14:22:51.040Z,1004.9
2022-11-29T14:24:07.280Z,1004.8
2022-11-29T14:25:23.524Z,1004.8
2022-11-29T14:26:39.786Z,1004.8
2022-11-29T14:27:56.001Z,1004.8
2022-11-29T14:29:12.268Z,1004.9
2022-11-29T14:30:28.494Z,1004.8
2022-11-29T14:31:44.729Z,1004.9
2022-11-29T14:32:59.994Z,1005
2022-11-29T14:34:16.229Z,1004.9
2022-11-29T14:35:32.465Z,1004.9
2022-11-29T14:36:48.729Z,1004.9
2022-11-29T14:38:04.965Z,1004.9
2022-11-29T14:39:21.196Z,1004.9
2022-11-29T14:40:37.440Z,1004.9
2022-11-29T14:41:53.679Z,1004.9
2022-11-29T14:43:09.931Z,1004.9
2022-11-29T14:44:26.147Z,1004.9
2022-11-29T14:45:42.395Z,1004.9
2022-11-29T14:48:14.885Z,1005
2022-11-29T14:49:30.135Z,1004.9
2022-11-29T14:50:46.375Z,1005
2022-11-29T14:52:02.628Z,1005
2022-11-29T14:53:18.862Z,1005
2022-11-29T14:54:35.086Z,1005
2022-11-29T14:55:51.323Z,1005
2022-11-29T14:57:07.584Z,1005
2022-11-29T14:58:23.809Z,1005
2022-11-29T14:59:40.045Z,1005
2022-11-29T15:00:56.288Z,1005
2022-11-29T15:02:12.530Z,1005.1
2022-11-29T15:03:28.775Z,1005.1
2022-11-29T15:04:45.020Z,1005.1
2022-11-29T15:06:00.281Z,1005.1
2022-11-29T15:07:16.504Z,1005.1
2022-11-29T15:08:32.770Z,1005.1
2022-11-29T15:09:48.990Z,1005.1
2022-11-29T15:11:05.238Z,1005.1
2022-11-29T15:12:21.467Z,1005.2
2022-11-29T15:13:37.724Z,1005.2
2022-11-29T15:14:53.948Z,1005.2
2022-11-29T15:16:10.186Z,1005.2
2022-11-29T15:17:26.430Z,1005.2
2022-11-29T15:18:42.686Z,1005.2
2022-11-29T15:19:58.912Z,1005.3
2022-11-29T15:21:15.149Z,1005.2
2022-11-29T15:22:30.413Z,1005.2
2022-11-29T15:23:46.663Z,1005.3
2022-11-29T15:25:02.894Z,1005.3
2022-11-29T15:26:19.192Z,1005.3
2022-11-29T15:27:35.449Z,1005.3
2022-11-29T15:28:51.674Z,1005.3
2022-11-29T15:30:07.930Z,1005.3
2022-11-29T15:31:24.145Z,1005.3
2022-11-29T15:32:40.442Z,1005.3
2022-11-29T15:33:56.744Z,1005.4
2022-11-29T15:35:13.034Z,1005.3
2022-11-29T15:36:29.328Z,1005.4
2022-11-29T15:37:45.629Z,1005.4
2022-11-29T15:39:00.931Z,1005.4
2022-11-29T15:40:17.221Z,1005.5
2022-11-29T15:41:33.517Z,1005.4
2022-11-29T15:42:49.816Z,1005.4
2022-11-29T15:44:06.111Z,1005.4
2022-11-29T15:45:22.404Z,1005.5
2022-11-29T15:46:38.705Z,1005.5
2022-11-29T15:47:54.998Z,1005.5
2022-11-29T15:49:11.285Z,1005.5
2022-11-29T15:50:27.589Z,1005.5
2022-11-29T15:51:43.876Z,1005.5
2022-11-29T15:53:00.171Z,1005.6
2022-11-29T15:54:16.471Z,1005.5
2022-11-29T15:55:31.774Z,1005.6
2022-11-29T15:56:48.066Z,1005.6
2022-11-29T15:58:04.359Z,1005.6
2022-11-29T15:59:20.661Z,1005.6
2022-11-29T16:00:36.947Z,1005.7
2022-11-29T16:01:53.247Z,1005.6